createdAt,value
2019-05-22T00:03:32.692Z,95074.84
2019-05-22T00:08:34.006Z,95079.45
2019-05-22T00:13:35.323Z,95082.89
2019-05-22T00:18:40.430Z,95089.77
2019-05-22T00:23:58.061Z,95083.02
2019-05-22T00:28:59.502Z,95087.06
2019-05-22T00:34:00.804Z,95081.23
2019-05-22T00:39:02.132Z,95092.55
2019-05-22T00:44:03.485Z,95088.95
2019-05-22T00:49:21.386Z,95089.41
2019-05-22T00:54:22.717Z,95092.63
2019-05-22T00:59:24.036Z,95101.92
2019-05-22T01:04:32.211Z,95099.52
2019-05-22T01:09:35.544Z,95097.69
2019-05-22T01:14:42.968Z,95096.98
2019-05-22T01:19:38.998Z,95098.52
2019-05-22T01:24:40.354Z,95105.55
2019-05-22T01:30:21.328Z,95111.12
2019-05-22T01:36:04.437Z,95102.03
2019-05-22T01:41:44.864Z,95108.61
2019-05-22T01:47:25.911Z,95106.36
2019-05-22T01:53:06.957Z,95110.41
2019-05-22T01:58:47.358Z,95122.06
2019-05-22T02:03:48.683Z,95120.63
2019-05-22T02:08:53.001Z,95111.33
2019-05-22T02:13:54.350Z,95115.80
2019-05-22T02:18:55.636Z,95121.28
2019-05-22T02:23:57.003Z,95114.52
2019-05-22T02:28:58.326Z,95126.25
2019-05-22T02:34:01.390Z,95126.50
2019-05-22T02:39:02.726Z,95132.52
2019-05-22T02:44:04.046Z,95127.92
2019-05-22T02:49:06.101Z,95131.79
2019-05-22T02:54:07.417Z,95128.75
2019-05-22T02:59:08.735Z,95139.23
2019-05-22T03:04:10.052Z,95138.00
2019-05-22T03:09:12.368Z,95143.95
2019-05-22T03:14:13.753Z,95144.42
2019-05-22T03:19:15.087Z,95154.22
2019-05-22T03:24:16.398Z,95149.90
2019-05-22T03:29:18.469Z,95151.14
2019-05-22T03:34:19.822Z,95164.44
2019-05-22T03:39:21.576Z,95160.43
2019-05-22T03:44:22.873Z,95162.91
2019-05-22T03:49:30.379Z,95168.76
2019-05-22T03:54:25.683Z,95183.57
2019-05-22T03:59:27.139Z,95171.84
2019-05-22T04:04:30.423Z,95182.63
2019-05-22T04:09:31.742Z,95184.90
2019-05-22T04:14:33.076Z,95188.86
2019-05-22T04:19:48.576Z,95189.50
2019-05-22T04:24:35.763Z,95197.75
2019-05-22T04:29:37.062Z,95213.55
2019-05-22T04:34:38.401Z,95215.30
2019-05-22T04:39:39.722Z,95211.19
2019-05-22T04:44:41.037Z,95204.41
2019-05-22T04:49:42.357Z,95202.47
2019-05-22T04:54:44.385Z,95216.53
2019-05-22T04:59:45.724Z,95211.47
2019-05-22T05:04:47.168Z,95213.16
2019-05-22T05:09:49.412Z,95213.36
2019-05-22T05:14:50.748Z,95217.56
2019-05-22T05:19:52.129Z,95218.67
2019-05-22T05:24:55.668Z,95227.86
2019-05-22T05:29:54.710Z,95231.31
2019-05-22T05:34:56.766Z,95235.39
2019-05-22T05:45:35.211Z,95235.38
2019-05-22T05:50:40.007Z,95255.33
2019-05-22T05:55:47.709Z,95254.27
2019-05-22T06:00:51.693Z,95263.95
2019-05-22T06:05:53.058Z,95260.53
2019-05-22T06:11:27.258Z,95262.02
2019-05-22T06:22:13.373Z,95272.75
2019-05-22T06:27:17.946Z,95282.60
2019-05-22T06:38:11.242Z,95296.98
2019-05-22T06:54:46.649Z,95309.56
2019-05-22T06:59:48.011Z,95294.80
2019-05-22T07:04:49.341Z,95309.04
2019-05-22T07:09:50.749Z,95295.34
2019-05-22T07:20:41.645Z,95309.33
2019-05-22T07:25:42.976Z,95319.23
2019-05-22T07:30:44.281Z,95315.13
2019-05-22T07:36:07.137Z,95322.97
2019-05-22T07:40:50.217Z,95331.64
2019-05-22T07:45:48.349Z,95324.27
2019-05-22T07:50:50.444Z,95318.89
2019-05-22T07:55:52.725Z,95310.00
2019-05-22T08:00:54.954Z,95323.30
2019-05-22T08:05:56.329Z,95322.49
2019-05-22T08:10:58.364Z,95325.58
2019-05-22T08:15:59.726Z,95314.66
2019-05-22T08:21:01.121Z,95320.90
2019-05-22T08:26:02.456Z,95326.30
2019-05-22T08:31:03.799Z,95327.63
2019-05-22T08:36:05.864Z,95330.20
2019-05-22T08:41:07.208Z,95328.93
2019-05-22T08:46:08.553Z,95330.61
2019-05-22T08:51:09.854Z,95338.83
2019-05-22T08:56:11.184Z,95345.83
2019-05-22T09:01:12.502Z,95345.94
2019-05-22T09:06:13.988Z,95344.37
2019-05-22T09:11:15.210Z,95352.95
2019-05-22T09:16:16.558Z,95352.34
2019-05-22T09:21:17.864Z,95362.54
2019-05-22T09:26:19.157Z,95353.47
2019-05-22T09:31:20.507Z,95362.08
2019-05-22T09:36:21.837Z,95366.06
2019-05-22T09:41:23.153Z,95358.69
2019-05-22T09:46:24.461Z,95383.24
2019-05-22T09:51:25.790Z,95395.88
2019-05-22T09:56:27.136Z,95391.75
2019-05-22T10:01:28.445Z,95392.03
2019-05-22T10:06:29.789Z,95393.09
2019-05-22T10:11:31.285Z,95389.81
2019-05-22T10:16:33.347Z,95377.97
2019-05-22T10:21:34.744Z,95393.67
2019-05-22T10:26:36.176Z,95397.34
2019-05-22T10:31:37.497Z,95392.05
2019-05-22T10:36:38.821Z,95401.38
2019-05-22T10:41:40.946Z,95404.46
2019-05-22T10:46:42.380Z,95400.03
2019-05-22T10:51:44.449Z,95406.53
2019-05-22T10:56:45.828Z,95426.50
2019-05-22T11:01:47.140Z,95406.54
2019-05-22T11:06:48.498Z,95408.09
2019-05-22T11:11:49.865Z,95416.40
2019-05-22T11:16:55.129Z,95417.75
2019-05-22T11:21:57.193Z,95422.30
2019-05-22T11:26:58.627Z,95413.27
2019-05-22T11:31:59.999Z,95423.75
2019-05-22T11:37:01.335Z,95417.44
2019-05-22T11:42:03.415Z,95421.02
2019-05-22T11:47:04.777Z,95418.53
2019-05-22T11:52:06.137Z,95433.01
2019-05-22T11:57:07.480Z,95424.18
2019-05-22T12:02:09.589Z,95438.63
2019-05-22T12:07:10.947Z,95438.55
2019-05-22T12:12:12.382Z,95422.19
2019-05-22T12:17:13.713Z,95423.50
2019-05-22T12:22:15.122Z,95433.70
2019-05-22T12:27:16.564Z,95432.92
2019-05-22T12:32:17.882Z,95422.66
2019-05-22T12:37:19.269Z,95436.95
2019-05-22T12:42:21.397Z,95437.77
2019-05-22T12:47:22.776Z,95424.00
2019-05-22T12:52:24.186Z,95424.39
2019-05-22T12:57:32.965Z,95434.23
2019-05-22T13:02:34.291Z,95429.17
2019-05-22T13:07:35.608Z,95415.63
2019-05-22T13:12:37.034Z,95415.86
2019-05-22T13:17:38.403Z,95422.70
2019-05-22T13:22:40.610Z,95426.04
2019-05-22T13:27:42.056Z,95441.27
2019-05-22T13:32:43.408Z,95431.75
2019-05-22T13:37:44.787Z,95427.51
2019-05-22T13:42:46.109Z,95443.48
2019-05-22T13:47:47.501Z,95437.63
2019-05-22T13:52:48.886Z,95443.11
2019-05-22T13:57:50.276Z,95451.23
2019-05-22T14:02:51.657Z,95454.81
2019-05-22T14:07:53.705Z,95434.97
2019-05-22T14:12:55.077Z,95444.67
2019-05-22T14:17:56.482Z,95443.63
2019-05-22T14:22:57.812Z,95433.08
2019-05-22T14:27:59.172Z,95435.80
2019-05-22T14:33:04.150Z,95442.67
2019-05-22T14:38:01.877Z,95433.19
2019-05-22T14:43:03.303Z,95429.03
2019-05-22T14:48:05.382Z,95430.18
2019-05-22T14:53:07.501Z,95428.02
2019-05-22T14:58:08.884Z,95437.80
2019-05-22T15:03:10.247Z,95438.76
2019-05-22T15:08:11.679Z,95434.84
2019-05-22T15:13:13.784Z,95450.17
2019-05-22T15:18:15.155Z,95442.82
2019-05-22T15:23:16.694Z,95435.45
2019-05-22T15:28:18.088Z,95453.68
2019-05-22T15:33:19.475Z,95453.09
2019-05-22T15:38:20.788Z,95463.83
2019-05-22T15:43:22.311Z,95448.64
2019-05-22T15:48:27.440Z,95449.63
2019-05-22T15:53:28.770Z,95442.91
2019-05-22T15:58:30.090Z,95448.25
2019-05-22T16:03:31.521Z,95445.38
2019-05-22T16:08:32.861Z,95443.75
2019-05-22T16:13:34.219Z,95455.73
2019-05-22T16:18:35.561Z,95457.03
2019-05-22T16:23:37.032Z,95450.45
2019-05-22T16:28:40.697Z,95455.20
2019-05-22T16:33:42.129Z,95460.47
2019-05-22T16:38:44.205Z,95455.98
2019-05-22T16:43:49.792Z,95462.17
2019-05-22T16:48:47.765Z,95456.38
2019-05-22T16:53:49.134Z,95459.92
2019-05-22T16:58:50.478Z,95463.09
2019-05-22T17:03:51.813Z,95471.02
2019-05-22T17:08:53.158Z,95469.66
2019-05-22T17:13:54.578Z,95462.91
2019-05-22T17:18:55.943Z,95471.13
2019-05-22T17:23:57.325Z,95470.73
2019-05-22T17:28:58.685Z,95477.09
2019-05-22T17:34:00.048Z,95473.98
2019-05-22T17:39:01.492Z,95479.13
2019-05-22T17:44:03.727Z,95484.45
2019-05-22T17:49:05.074Z,95480.30
2019-05-22T17:54:06.457Z,95485.63
2019-05-22T17:59:07.817Z,95482.27
2019-05-22T18:04:09.128Z,95483.28
2019-05-22T18:09:10.768Z,95484.62
2019-05-22T18:14:12.890Z,95481.65
2019-05-22T18:19:14.971Z,95481.78
2019-05-22T18:24:17.094Z,95488.11
2019-05-22T18:29:18.446Z,95491.70
2019-05-22T18:34:19.805Z,95496.59
2019-05-22T18:39:21.100Z,95501.97
2019-05-22T18:44:22.497Z,95505.69
2019-05-22T18:49:23.873Z,95508.36
2019-05-22T18:54:33.045Z,95518.45
2019-05-22T18:59:34.395Z,95519.16
2019-05-22T19:04:36.707Z,95520.86
2019-05-22T19:09:40.185Z,95519.41
2019-05-22T19:14:42.813Z,95526.34
2019-05-22T19:19:45.583Z,95527.73
2019-05-22T19:24:47.696Z,95529.64
2019-05-22T19:29:49.044Z,95534.27
2019-05-22T19:34:50.463Z,95545.76
2019-05-22T19:39:54.748Z,95550.86
2019-05-22T19:44:56.152Z,95552.56
2019-05-22T19:49:57.567Z,95547.59
2019-05-22T19:54:58.925Z,95558.88
2019-05-22T20:00:00.278Z,95564.86
2019-05-22T20:05:02.356Z,95560.53
2019-05-22T20:10:04.431Z,95559.63
2019-05-22T20:15:06.560Z,95555.66
2019-05-22T20:20:07.909Z,95563.34
2019-05-22T20:25:09.995Z,95557.73
2019-05-22T20:30:11.367Z,95562.73
2019-05-22T20:35:12.768Z,95568.75
2019-05-22T20:40:14.139Z,95566.52
2019-05-22T20:45:15.482Z,95568.84
2019-05-22T20:50:18.374Z,95572.70
2019-05-22T20:55:20.847Z,95575.06
2019-05-22T21:00:23.752Z,95568.80
2019-05-22T21:05:26.390Z,95568.73
2019-05-22T21:10:29.445Z,95571.81
2019-05-22T21:15:34.471Z,95572.73
2019-05-22T21:20:36.490Z,95569.64
2019-05-22T21:25:38.771Z,95568.11
2019-05-22T21:30:41.736Z,95569.89
2019-05-22T21:35:43.873Z,95570.03
2019-05-22T21:40:45.236Z,95566.53
2019-05-22T21:45:46.573Z,95569.68
2019-05-22T21:50:47.927Z,95574.33
2019-05-22T21:56:03.617Z,95575.20
2019-05-22T22:06:20.698Z,95570.67
2019-05-22T22:11:22.069Z,95574.21
2019-05-22T22:16:23.355Z,95565.00
2019-05-22T22:21:24.717Z,95568.09
2019-05-22T22:26:26.693Z,95567.88
2019-05-22T22:31:27.448Z,95573.56
2019-05-22T22:36:28.818Z,95580.20
2019-05-22T22:41:30.209Z,95582.13
2019-05-22T22:46:33.430Z,95586.61
2019-05-22T22:51:35.711Z,95570.33
2019-05-22T22:56:37.101Z,95570.71
2019-05-22T23:01:39.218Z,95574.43
2019-05-22T23:06:40.555Z,95568.66
2019-05-22T23:11:42.022Z,95569.61
2019-05-22T23:16:43.346Z,95568.16
2019-05-22T23:21:45.290Z,95580.02
2019-05-22T23:26:47.189Z,95571.56
2019-05-22T23:31:48.585Z,95576.92
2019-05-22T23:36:50.037Z,95579.63
2019-05-22T23:41:51.641Z,95574.07
2019-05-22T23:47:01.310Z,95571.27
2019-05-22T23:52:02.699Z,95574.36
2019-05-22T23:57:04.069Z,95576.00
